sensor_id;sensor_type;location;lat;lon;timestamp;P1;durP1;ratioP1;P2;durP2;ratioP2
8068;SDS011;4077;43.702;24.896;2023-03-16T00:00:23;1999.90;;;999.90;;
8068;SDS011;4077;43.702;24.896;2023-03-16T00:02:49;1999.90;;;999.90;;
8068;SDS011;4077;43.702;24.896;2023-03-16T00:05:14;1999.90;;;999.90;;
8068;SDS011;4077;43.702;24.896;2023-03-16T00:07:40;1999.90;;;999.90;;
8068;SDS011;4077;43.702;24.896;2023-03-16T00:10:06;1999.90;;;999.90;;
8068;SDS011;4077;43.702;24.896;2023-03-16T00:12:33;1999.90;;;999.90;;
8068;SDS011;4077;43.702;24.896;2023-03-16T00:14:59;1999.90;;;999.90;;
8068;SDS011;4077;43.702;24.896;2023-03-16T00:17:25;1999.90;;;999.90;;
8068;SDS011;4077;43.702;24.896;2023-03-16T00:19:54;1999.90;;;999.90;;
8068;SDS011;4077;43.702;24.896;2023-03-16T00:22:22;1999.90;;;999.90;;
8068;SDS011;4077;43.702;24.896;2023-03-16T00:24:47;1999.90;;;999.90;;
8068;SDS011;4077;43.702;24.896;2023-03-16T00:27:13;1999.90;;;999.90;;
8068;SDS011;4077;43.702;24.896;2023-03-16T00:29:42;1999.90;;;999.90;;
8068;SDS011;4077;43.702;24.896;2023-03-16T00:32:12;1999.90;;;999.90;;
8068;SDS011;4077;43.702;24.896;2023-03-16T00:34:40;1999.90;;;999.90;;
8068;SDS011;4077;43.702;24.896;2023-03-16T00:37:06;1999.90;;;999.90;;
8068;SDS011;4077;43.702;24.896;2023-03-16T00:39:31;1999.90;;;999.90;;
8068;SDS011;4077;43.702;24.896;2023-03-16T00:41:59;1999.90;;;999.90;;
8068;SDS011;4077;43.702;24.896;2023-03-16T00:44:26;1999.90;;;999.90;;
8068;SDS011;4077;43.702;24.896;2023-03-16T00:46:52;1999.90;;;999.90;;
8068;SDS011;4077;43.702;24.896;2023-03-16T00:49:17;1999.90;;;999.90;;
8068;SDS011;4077;43.702;24.896;2023-03-16T00:51:43;1999.90;;;999.90;;
8068;SDS011;4077;43.702;24.896;2023-03-16T00:54:10;1999.90;;;999.90;;
8068;SDS011;4077;43.702;24.896;2023-03-16T00:56:35;1999.90;;;999.90;;
8068;SDS011;4077;43.702;24.896;2023-03-16T00:59:11;1999.90;;;999.90;;
8068;SDS011;4077;43.702;24.896;2023-03-16T01:01:37;1999.90;;;999.90;;
8068;SDS011;4077;43.702;24.896;2023-03-16T01:04:02;1999.90;;;999.90;;
8068;SDS011;4077;43.702;24.896;2023-03-16T01:06:28;1999.90;;;999.90;;
8068;SDS011;4077;43.702;24.896;2023-03-16T01:08:54;1999.90;;;999.90;;
8068;SDS011;4077;43.702;24.896;2023-03-16T01:11:21;1999.90;;;999.90;;
8068;SDS011;4077;43.702;24.896;2023-03-16T01:13:47;1999.90;;;999.90;;
8068;SDS011;4077;43.702;24.896;2023-03-16T01:16:17;1999.90;;;999.90;;
8068;SDS011;4077;43.702;24.896;2023-03-16T01:18:43;1999.90;;;999.90;;
8068;SDS011;4077;43.702;24.896;2023-03-16T01:21:09;1999.90;;;999.90;;
8068;SDS011;4077;43.702;24.896;2023-03-16T01:23:38;1999.90;;;999.90;;
8068;SDS011;4077;43.702;24.896;2023-03-16T01:26:04;1999.90;;;999.90;;
8068;SDS011;4077;43.702;24.896;2023-03-16T01:28:31;1999.90;;;999.90;;
8068;SDS011;4077;43.702;24.896;2023-03-16T01:31:03;1999.90;;;999.90;;
8068;SDS011;4077;43.702;24.896;2023-03-16T01:33:30;1999.90;;;999.90;;
8068;SDS011;4077;43.702;24.896;2023-03-16T01:35:57;1999.90;;;999.90;;
8068;SDS011;4077;43.702;24.896;2023-03-16T01:38:25;1999.90;;;999.90;;
8068;SDS011;4077;43.702;24.896;2023-03-16T01:40:57;1999.90;;;999.90;;
8068;SDS011;4077;43.702;24.896;2023-03-16T01:43:24;1999.90;;;999.90;;
8068;SDS011;4077;43.702;24.896;2023-03-16T01:46:36;1999.90;;;999.90;;
8068;SDS011;4077;43.702;24.896;2023-03-16T01:48:46;1999.90;;;999.90;;
8068;SDS011;4077;43.702;24.896;2023-03-16T01:53:50;1999.90;;;999.90;;
8068;SDS011;4077;43.702;24.896;2023-03-16T01:56:24;1999.90;;;999.90;;
8068;SDS011;4077;43.702;24.896;2023-03-16T01:58:54;1999.90;;;999.90;;
8068;SDS011;4077;43.702;24.896;2023-03-16T02:01:23;1999.90;;;999.90;;
8068;SDS011;4077;43.702;24.896;2023-03-16T02:03:52;1999.90;;;999.90;;
8068;SDS011;4077;43.702;24.896;2023-03-16T02:06:21;1999.90;;;999.90;;
8068;SDS011;4077;43.702;24.896;2023-03-16T02:08:47;1999.90;;;999.90;;
8068;SDS011;4077;43.702;24.896;2023-03-16T02:11:14;1999.90;;;999.90;;
8068;SDS011;4077;43.702;24.896;2023-03-16T02:13:44;1999.90;;;999.90;;
8068;SDS011;4077;43.702;24.896;2023-03-16T02:16:10;1999.90;;;999.90;;
8068;SDS011;4077;43.702;24.896;2023-03-16T02:18:43;1999.90;;;999.90;;
8068;SDS011;4077;43.702;24.896;2023-03-16T02:21:14;1999.90;;;999.90;;
8068;SDS011;4077;43.702;24.896;2023-03-16T02:23:45;1999.90;;;999.90;;
8068;SDS011;4077;43.702;24.896;2023-03-16T02:29:02;1999.90;;;999.90;;
8068;SDS011;4077;43.702;24.896;2023-03-16T02:31:38;1999.90;;;999.90;;
8068;SDS011;4077;43.702;24.896;2023-03-16T02:34:04;1999.90;;;999.90;;
8068;SDS011;4077;43.702;24.896;2023-03-16T02:36:31;1999.90;;;999.90;;
8068;SDS011;4077;43.702;24.896;2023-03-16T02:38:58;1999.90;;;999.90;;
8068;SDS011;4077;43.702;24.896;2023-03-16T02:41:24;1999.90;;;999.90;;
8068;SDS011;4077;43.702;24.896;2023-03-16T02:43:52;1999.90;;;999.90;;
8068;SDS011;4077;43.702;24.896;2023-03-16T02:46:22;1999.90;;;999.90;;
8068;SDS011;4077;43.702;24.896;2023-03-16T02:51:46;1999.90;;;999.90;;
8068;SDS011;4077;43.702;24.896;2023-03-16T02:54:12;1999.90;;;999.90;;
8068;SDS011;4077;43.702;24.896;2023-03-16T02:56:38;1999.90;;;999.90;;
8068;SDS011;4077;43.702;24.896;2023-03-16T02:59:03;1999.90;;;999.90;;
8068;SDS011;4077;43.702;24.896;2023-03-16T03:01:29;1999.90;;;999.90;;
8068;SDS011;4077;43.702;24.896;2023-03-16T03:03:56;1999.90;;;999.90;;
8068;SDS011;4077;43.702;24.896;2023-03-16T03:06:22;1999.90;;;999.90;;
8068;SDS011;4077;43.702;24.896;2023-03-16T03:08:48;1999.90;;;999.90;;
8068;SDS011;4077;43.702;24.896;2023-03-16T03:11:14;1999.90;;;999.90;;
8068;SDS011;4077;43.702;24.896;2023-03-16T03:13:39;1999.90;;;999.90;;
8068;SDS011;4077;43.702;24.896;2023-03-16T03:16:07;1999.90;;;999.90;;
8068;SDS011;4077;43.702;24.896;2023-03-16T03:18:33;1999.90;;;999.90;;
8068;SDS011;4077;43.702;24.896;2023-03-16T03:20:58;1999.90;;;999.90;;
8068;SDS011;4077;43.702;24.896;2023-03-16T03:23:24;1999.90;;;999.90;;
8068;SDS011;4077;43.702;24.896;2023-03-16T03:25:49;1999.90;;;999.90;;
8068;SDS011;4077;43.702;24.896;2023-03-16T03:28:15;1999.90;;;999.90;;
8068;SDS011;4077;43.702;24.896;2023-03-16T03:30:40;1999.90;;;999.90;;
8068;SDS011;4077;43.702;24.896;2023-03-16T03:33:06;1999.90;;;999.90;;
8068;SDS011;4077;43.702;24.896;2023-03-16T03:35:31;1999.90;;;999.90;;
8068;SDS011;4077;43.702;24.896;2023-03-16T03:37:56;1999.90;;;999.90;;
8068;SDS011;4077;43.702;24.896;2023-03-16T03:40:22;1999.90;;;999.90;;
8068;SDS011;4077;43.702;24.896;2023-03-16T03:42:48;1999.90;;;999.90;;
8068;SDS011;4077;43.702;24.896;2023-03-16T03:45:14;1999.90;;;999.90;;
8068;SDS011;4077;43.702;24.896;2023-03-16T03:47:40;1999.90;;;999.90;;
8068;SDS011;4077;43.702;24.896;2023-03-16T03:50:06;1999.90;;;999.90;;
8068;SDS011;4077;43.702;24.896;2023-03-16T03:52:33;1999.90;;;999.90;;
8068;SDS011;4077;43.702;24.896;2023-03-16T03:54:58;1999.90;;;999.90;;
8068;SDS011;4077;43.702;24.896;2023-03-16T03:57:24;1999.90;;;999.90;;
8068;SDS011;4077;43.702;24.896;2023-03-16T03:59:49;1999.90;;;999.90;;
8068;SDS011;4077;43.702;24.896;2023-03-16T04:02:15;1999.90;;;999.90;;
8068;SDS011;4077;43.702;24.896;2023-03-16T04:04:41;1999.90;;;999.90;;
8068;SDS011;4077;43.702;24.896;2023-03-16T04:07:07;1999.90;;;999.90;;
8068;SDS011;4077;43.702;24.896;2023-03-16T04:09:33;1999.90;;;999.90;;
8068;SDS011;4077;43.702;24.896;2023-03-16T04:11:59;1999.90;;;999.90;;
8068;SDS011;4077;43.702;24.896;2023-03-16T04:14:26;1999.90;;;999.90;;
8068;SDS011;4077;43.702;24.896;2023-03-16T04:16:52;1999.90;;;999.90;;
8068;SDS011;4077;43.702;24.896;2023-03-16T04:19:19;1999.90;;;999.90;;
8068;SDS011;4077;43.702;24.896;2023-03-16T04:21:45;1999.90;;;999.90;;
8068;SDS011;4077;43.702;24.896;2023-03-16T04:24:10;1999.90;;;999.90;;
8068;SDS011;4077;43.702;24.896;2023-03-16T04:26:39;1999.90;;;999.90;;
8068;SDS011;4077;43.702;24.896;2023-03-16T04:29:05;1999.90;;;999.90;;
8068;SDS011;4077;43.702;24.896;2023-03-16T04:31:30;1999.90;;;999.90;;
8068;SDS011;4077;43.702;24.896;2023-03-16T04:33:55;1999.90;;;999.90;;
8068;SDS011;4077;43.702;24.896;2023-03-16T04:36:21;1999.90;;;999.90;;
8068;SDS011;4077;43.702;24.896;2023-03-16T04:38:50;1999.90;;;999.90;;
8068;SDS011;4077;43.702;24.896;2023-03-16T04:41:16;1999.90;;;999.90;;
8068;SDS011;4077;43.702;24.896;2023-03-16T04:43:42;1999.90;;;999.90;;
8068;SDS011;4077;43.702;24.896;2023-03-16T04:46:08;1999.90;;;999.90;;
8068;SDS011;4077;43.702;24.896;2023-03-16T04:48:34;1999.90;;;999.90;;
8068;SDS011;4077;43.702;24.896;2023-03-16T04:51:00;1999.90;;;999.90;;
8068;SDS011;4077;43.702;24.896;2023-03-16T04:53:27;1999.90;;;999.90;;
8068;SDS011;4077;43.702;24.896;2023-03-16T04:55:54;1999.90;;;999.90;;
8068;SDS011;4077;43.702;24.896;2023-03-16T04:58:19;1999.90;;;999.90;;
8068;SDS011;4077;43.702;24.896;2023-03-16T05:00:44;1999.90;;;999.90;;
8068;SDS011;4077;43.702;24.896;2023-03-16T05:03:10;1999.90;;;999.90;;
8068;SDS011;4077;43.702;24.896;2023-03-16T05:05:36;1999.90;;;999.90;;
8068;SDS011;4077;43.702;24.896;2023-03-16T05:08:03;1999.90;;;999.90;;
8068;SDS011;4077;43.702;24.896;2023-03-16T05:10:30;1999.90;;;999.90;;
8068;SDS011;4077;43.702;24.896;2023-03-16T05:12:57;1999.90;;;999.90;;
8068;SDS011;4077;43.702;24.896;2023-03-16T05:15:23;1999.90;;;999.90;;
8068;SDS011;4077;43.702;24.896;2023-03-16T05:17:48;1999.90;;;999.90;;
8068;SDS011;4077;43.702;24.896;2023-03-16T05:20:15;1999.90;;;999.90;;
8068;SDS011;4077;43.702;24.896;2023-03-16T05:22:42;1999.90;;;999.90;;
8068;SDS011;4077;43.702;24.896;2023-03-16T05:25:10;1999.90;;;999.90;;
8068;SDS011;4077;43.702;24.896;2023-03-16T05:27:51;1999.90;;;999.90;;
8068;SDS011;4077;43.702;24.896;2023-03-16T05:30:18;1999.90;;;999.90;;
8068;SDS011;4077;43.702;24.896;2023-03-16T05:32:44;1999.90;;;999.90;;
8068;SDS011;4077;43.702;24.896;2023-03-16T05:35:10;1999.90;;;999.90;;
8068;SDS011;4077;43.702;24.896;2023-03-16T05:37:39;1999.90;;;999.90;;
8068;SDS011;4077;43.702;24.896;2023-03-16T05:40:06;1999.90;;;999.90;;
8068;SDS011;4077;43.702;24.896;2023-03-16T05:42:47;1999.90;;;999.90;;
8068;SDS011;4077;43.702;24.896;2023-03-16T05:45:18;1999.90;;;999.90;;
8068;SDS011;4077;43.702;24.896;2023-03-16T05:47:43;1999.90;;;999.90;;
8068;SDS011;4077;43.702;24.896;2023-03-16T05:50:09;1999.90;;;999.90;;
8068;SDS011;4077;43.702;24.896;2023-03-16T05:52:36;1999.90;;;999.90;;
8068;SDS011;4077;43.702;24.896;2023-03-16T05:55:06;1999.90;;;999.90;;
8068;SDS011;4077;43.702;24.896;2023-03-16T05:57:33;1999.90;;;999.90;;
8068;SDS011;4077;43.702;24.896;2023-03-16T06:00:00;1999.90;;;999.90;;
8068;SDS011;4077;43.702;24.896;2023-03-16T06:02:26;1999.90;;;999.90;;
8068;SDS011;4077;43.702;24.896;2023-03-16T06:04:52;1999.90;;;999.90;;
8068;SDS011;4077;43.702;24.896;2023-03-16T06:07:18;1999.90;;;999.90;;
8068;SDS011;4077;43.702;24.896;2023-03-16T06:09:43;1999.90;;;999.90;;
8068;SDS011;4077;43.702;24.896;2023-03-16T06:12:09;1999.90;;;999.90;;
8068;SDS011;4077;43.702;24.896;2023-03-16T06:14:35;1999.90;;;999.90;;
8068;SDS011;4077;43.702;24.896;2023-03-16T06:17:00;1999.90;;;999.90;;
8068;SDS011;4077;43.702;24.896;2023-03-16T06:19:26;1999.90;;;999.90;;
8068;SDS011;4077;43.702;24.896;2023-03-16T06:21:51;1999.90;;;999.90;;
8068;SDS011;4077;43.702;24.896;2023-03-16T06:24:17;1999.90;;;999.90;;
8068;SDS011;4077;43.702;24.896;2023-03-16T06:26:42;1999.90;;;999.90;;
8068;SDS011;4077;43.702;24.896;2023-03-16T06:29:08;1999.90;;;999.90;;
8068;SDS011;4077;43.702;24.896;2023-03-16T06:31:34;1999.90;;;999.90;;
8068;SDS011;4077;43.702;24.896;2023-03-16T06:34:00;1999.90;;;999.90;;
8068;SDS011;4077;43.702;24.896;2023-03-16T06:36:25;1999.90;;;999.90;;
8068;SDS011;4077;43.702;24.896;2023-03-16T06:38:51;1999.90;;;999.90;;
8068;SDS011;4077;43.702;24.896;2023-03-16T06:41:16;1999.90;;;999.90;;
8068;SDS011;4077;43.702;24.896;2023-03-16T06:43:42;1999.90;;;999.90;;
8068;SDS011;4077;43.702;24.896;2023-03-16T06:46:08;1999.90;;;999.90;;
8068;SDS011;4077;43.702;24.896;2023-03-16T06:48:33;1999.90;;;999.90;;
8068;SDS011;4077;43.702;24.896;2023-03-16T06:50:59;1999.90;;;999.90;;
8068;SDS011;4077;43.702;24.896;2023-03-16T06:53:25;1999.90;;;999.90;;
8068;SDS011;4077;43.702;24.896;2023-03-16T06:55:50;1999.90;;;999.90;;
8068;SDS011;4077;43.702;24.896;2023-03-16T06:58:16;1999.90;;;999.90;;
8068;SDS011;4077;43.702;24.896;2023-03-16T07:00:42;1999.90;;;999.90;;
8068;SDS011;4077;43.702;24.896;2023-03-16T07:03:07;952.57;;;603.00;;
8068;SDS011;4077;43.702;24.896;2023-03-16T07:05:33;201.73;;;191.50;;
8068;SDS011;4077;43.702;24.896;2023-03-16T07:07:58;245.67;;;228.43;;
8068;SDS011;4077;43.702;24.896;2023-03-16T07:10:25;126.40;;;120.57;;
8068;SDS011;4077;43.702;24.896;2023-03-16T07:12:50;87.53;;;83.43;;
8068;SDS011;4077;43.702;24.896;2023-03-16T07:15:16;1999.90;;;999.90;;
8068;SDS011;4077;43.702;24.896;2023-03-16T07:17:43;1999.90;;;999.90;;
8068;SDS011;4077;43.702;24.896;2023-03-16T07:20:08;883.03;;;536.60;;
8068;SDS011;4077;43.702;24.896;2023-03-16T07:22:36;1024.47;;;669.30;;
8068;SDS011;4077;43.702;24.896;2023-03-16T07:25:02;1999.90;;;999.90;;
8068;SDS011;4077;43.702;24.896;2023-03-16T07:27:28;85.47;;;81.43;;
8068;SDS011;4077;43.702;24.896;2023-03-16T07:29:54;94.43;;;89.90;;
8068;SDS011;4077;43.702;24.896;2023-03-16T07:32:20;249.10;;;235.10;;
8068;SDS011;4077;43.702;24.896;2023-03-16T07:34:46;157.23;;;149.40;;
8068;SDS011;4077;43.702;24.896;2023-03-16T07:37:12;143.00;;;136.20;;
8068;SDS011;4077;43.702;24.896;2023-03-16T07:39:37;122.90;;;116.93;;
8068;SDS011;4077;43.702;24.896;2023-03-16T07:42:03;121.87;;;115.23;;
8068;SDS011;4077;43.702;24.896;2023-03-16T07:44:29;151.77;;;143.90;;
8068;SDS011;4077;43.702;24.896;2023-03-16T07:46:55;134.47;;;127.73;;
8068;SDS011;4077;43.702;24.896;2023-03-16T07:49:21;244.57;;;232.37;;
8068;SDS011;4077;43.702;24.896;2023-03-16T07:51:46;138.87;;;132.17;;
8068;SDS011;4077;43.702;24.896;2023-03-16T07:54:12;566.57;;;441.00;;
8068;SDS011;4077;43.702;24.896;2023-03-16T07:56:38;134.63;;;126.63;;
8068;SDS011;4077;43.702;24.896;2023-03-16T07:59:04;380.10;;;357.43;;
8068;SDS011;4077;43.702;24.896;2023-03-16T08:01:29;335.47;;;317.47;;
8068;SDS011;4077;43.702;24.896;2023-03-16T08:03:55;114.07;;;108.87;;
8068;SDS011;4077;43.702;24.896;2023-03-16T08:06:20;378.93;;;358.63;;
8068;SDS011;4077;43.702;24.896;2023-03-16T08:08:46;1999.90;;;999.90;;
8068;SDS011;4077;43.702;24.896;2023-03-16T08:11:12;1999.90;;;999.90;;
8068;SDS011;4077;43.702;24.896;2023-03-16T08:13:38;1999.90;;;999.90;;
8068;SDS011;4077;43.702;24.896;2023-03-16T08:16:05;1999.90;;;999.90;;
8068;SDS011;4077;43.702;24.896;2023-03-16T08:18:34;1999.90;;;999.90;;
8068;SDS011;4077;43.702;24.896;2023-03-16T08:21:00;1999.90;;;999.90;;
8068;SDS011;4077;43.702;24.896;2023-03-16T08:23:26;1999.90;;;999.90;;
8068;SDS011;4077;43.702;24.896;2023-03-16T08:25:53;1999.90;;;931.23;;
8068;SDS011;4077;43.702;24.896;2023-03-16T08:28:20;1999.90;;;999.90;;
8068;SDS011;4077;43.702;24.896;2023-03-16T08:30:46;1999.90;;;999.90;;
8068;SDS011;4077;43.702;24.896;2023-03-16T08:33:15;1999.90;;;999.90;;
8068;SDS011;4077;43.702;24.896;2023-03-16T08:35:42;1999.90;;;999.90;;
8068;SDS011;4077;43.702;24.896;2023-03-16T08:38:09;1999.90;;;999.90;;
8068;SDS011;4077;43.702;24.896;2023-03-16T08:40:35;1999.90;;;999.90;;
8068;SDS011;4077;43.702;24.896;2023-03-16T08:43:01;1999.90;;;999.90;;
8068;SDS011;4077;43.702;24.896;2023-03-16T08:45:28;1999.90;;;999.90;;
8068;SDS011;4077;43.702;24.896;2023-03-16T08:47:54;1999.90;;;999.90;;
8068;SDS011;4077;43.702;24.896;2023-03-16T08:50:19;1999.90;;;999.90;;
8068;SDS011;4077;43.702;24.896;2023-03-16T08:52:46;1999.90;;;999.90;;
8068;SDS011;4077;43.702;24.896;2023-03-16T08:55:13;1909.00;;;891.23;;
8068;SDS011;4077;43.702;24.896;2023-03-16T08:57:39;1999.90;;;941.20;;
8068;SDS011;4077;43.702;24.896;2023-03-16T09:00:05;1954.77;;;917.70;;
8068;SDS011;4077;43.702;24.896;2023-03-16T09:02:39;1971.80;;;999.90;;
8068;SDS011;4077;43.702;24.896;2023-03-16T09:05:08;1999.90;;;999.90;;
8068;SDS011;4077;43.702;24.896;2023-03-16T09:07:35;1999.47;;;965.73;;
8068;SDS011;4077;43.702;24.896;2023-03-16T09:10:02;1999.90;;;961.37;;
8068;SDS011;4077;43.702;24.896;2023-03-16T09:12:30;1999.90;;;999.90;;
8068;SDS011;4077;43.702;24.896;2023-03-16T09:14:56;1999.90;;;999.90;;
8068;SDS011;4077;43.702;24.896;2023-03-16T09:17:21;1999.90;;;999.90;;
8068;SDS011;4077;43.702;24.896;2023-03-16T09:19:47;1956.07;;;923.30;;
8068;SDS011;4077;43.702;24.896;2023-03-16T09:22:13;1999.90;;;996.17;;
8068;SDS011;4077;43.702;24.896;2023-03-16T09:24:38;1999.90;;;987.27;;
8068;SDS011;4077;43.702;24.896;2023-03-16T09:27:04;1999.90;;;983.33;;
8068;SDS011;4077;43.702;24.896;2023-03-16T09:29:29;1999.90;;;975.97;;
8068;SDS011;4077;43.702;24.896;2023-03-16T09:31:55;1999.90;;;999.90;;
8068;SDS011;4077;43.702;24.896;2023-03-16T09:34:21;1194.97;;;999.90;;
8068;SDS011;4077;43.702;24.896;2023-03-16T09:36:47;1999.90;;;950.77;;
8068;SDS011;4077;43.702;24.896;2023-03-16T09:39:12;1999.90;;;999.90;;
8068;SDS011;4077;43.702;24.896;2023-03-16T09:41:49;1994.33;;;887.60;;
8068;SDS011;4077;43.702;24.896;2023-03-16T09:46:55;1999.90;;;999.90;;
8068;SDS011;4077;43.702;24.896;2023-03-16T09:49:26;1999.90;;;999.90;;
8068;SDS011;4077;43.702;24.896;2023-03-16T09:57:56;1999.90;;;999.90;;
8068;SDS011;4077;43.702;24.896;2023-03-16T10:00:24;1999.90;;;999.90;;
8068;SDS011;4077;43.702;24.896;2023-03-16T10:05:34;1999.90;;;999.90;;
8068;SDS011;4077;43.702;24.896;2023-03-16T10:13:26;1999.90;;;999.90;;
8068;SDS011;4077;43.702;24.896;2023-03-16T10:16:01;1999.90;;;999.90;;
8068;SDS011;4077;43.702;24.896;2023-03-16T10:18:38;1999.90;;;999.90;;
8068;SDS011;4077;43.702;24.896;2023-03-16T10:21:14;1999.90;;;999.90;;
8068;SDS011;4077;43.702;24.896;2023-03-16T10:23:42;1999.90;;;999.90;;
8068;SDS011;4077;43.702;24.896;2023-03-16T10:26:11;1999.90;;;999.90;;
8068;SDS011;4077;43.702;24.896;2023-03-16T10:28:38;1999.90;;;999.57;;
8068;SDS011;4077;43.702;24.896;2023-03-16T10:31:07;1999.90;;;999.90;;
8068;SDS011;4077;43.702;24.896;2023-03-16T10:33:35;1999.90;;;999.90;;
8068;SDS011;4077;43.702;24.896;2023-03-16T10:36:08;1999.90;;;999.90;;
8068;SDS011;4077;43.702;24.896;2023-03-16T10:43:52;1999.90;;;999.90;;
8068;SDS011;4077;43.702;24.896;2023-03-16T10:46:35;1999.90;;;999.90;;
8068;SDS011;4077;43.702;24.896;2023-03-16T10:49:03;1999.90;;;999.90;;
8068;SDS011;4077;43.702;24.896;2023-03-16T10:51:30;1999.90;;;999.90;;
8068;SDS011;4077;43.702;24.896;2023-03-16T10:54:03;1999.90;;;999.90;;
8068;SDS011;4077;43.702;24.896;2023-03-16T10:56:35;1999.90;;;999.90;;
8068;SDS011;4077;43.702;24.896;2023-03-16T10:59:11;1999.90;;;999.90;;
8068;SDS011;4077;43.702;24.896;2023-03-16T11:01:43;1999.90;;;999.90;;
8068;SDS011;4077;43.702;24.896;2023-03-16T11:04:14;1999.90;;;999.90;;
8068;SDS011;4077;43.702;24.896;2023-03-16T11:06:50;1999.90;;;999.90;;
8068;SDS011;4077;43.702;24.896;2023-03-16T11:09:23;1999.90;;;999.90;;
8068;SDS011;4077;43.702;24.896;2023-03-16T11:11:51;1999.90;;;999.90;;
8068;SDS011;4077;43.702;24.896;2023-03-16T11:14:19;1999.90;;;999.90;;
8068;SDS011;4077;43.702;24.896;2023-03-16T11:19:26;1999.90;;;999.90;;
8068;SDS011;4077;43.702;24.896;2023-03-16T11:32:30;1999.90;;;999.90;;
8068;SDS011;4077;43.702;24.896;2023-03-16T11:34:59;1999.90;;;999.90;;
8068;SDS011;4077;43.702;24.896;2023-03-16T11:46:10;1999.90;;;999.90;;
8068;SDS011;4077;43.702;24.896;2023-03-16T12:11:08;1999.90;;;999.90;;
8068;SDS011;4077;43.702;24.896;2023-03-16T12:18:46;1999.90;;;999.90;;
8068;SDS011;4077;43.702;24.896;2023-03-16T12:21:21;1999.90;;;999.90;;
8068;SDS011;4077;43.702;24.896;2023-03-16T12:26:22;1999.90;;;999.90;;
8068;SDS011;4077;43.702;24.896;2023-03-16T12:28:53;1999.90;;;999.90;;
8068;SDS011;4077;43.702;24.896;2023-03-16T12:31:27;1999.90;;;999.90;;
8068;SDS011;4077;43.702;24.896;2023-03-16T12:37:50;1999.90;;;999.90;;
8068;SDS011;4077;43.702;24.896;2023-03-16T12:43:05;1999.90;;;999.90;;
8068;SDS011;4077;43.702;24.896;2023-03-16T12:45:39;1999.90;;;999.90;;
8068;SDS011;4077;43.702;24.896;2023-03-16T12:48:22;1999.90;;;999.90;;
8068;SDS011;4077;43.702;24.896;2023-03-16T12:51:10;1999.90;;;999.90;;
8068;SDS011;4077;43.702;24.896;2023-03-16T12:56:21;1999.90;;;999.90;;
8068;SDS011;4077;43.702;24.896;2023-03-16T12:58:54;1999.90;;;999.90;;
8068;SDS011;4077;43.702;24.896;2023-03-16T13:01:28;1999.90;;;999.90;;
8068;SDS011;4077;43.702;24.896;2023-03-16T13:04:04;1999.90;;;999.90;;
8068;SDS011;4077;43.702;24.896;2023-03-16T13:06:49;1999.90;;;999.90;;
8068;SDS011;4077;43.702;24.896;2023-03-16T13:09:26;1999.90;;;999.90;;
8068;SDS011;4077;43.702;24.896;2023-03-16T13:11:56;1999.90;;;999.90;;
8068;SDS011;4077;43.702;24.896;2023-03-16T13:19:39;1999.90;;;999.90;;
8068;SDS011;4077;43.702;24.896;2023-03-16T13:22:24;1999.90;;;999.90;;
8068;SDS011;4077;43.702;24.896;2023-03-16T13:24:52;1999.90;;;999.90;;
8068;SDS011;4077;43.702;24.896;2023-03-16T13:27:38;1999.90;;;999.90;;
8068;SDS011;4077;43.702;24.896;2023-03-16T13:30:26;1999.90;;;999.90;;
8068;SDS011;4077;43.702;24.896;2023-03-16T13:32:55;1999.90;;;999.90;;
8068;SDS011;4077;43.702;24.896;2023-03-16T13:35:26;1999.90;;;999.90;;
8068;SDS011;4077;43.702;24.896;2023-03-16T13:37:53;1999.90;;;999.90;;
8068;SDS011;4077;43.702;24.896;2023-03-16T13:40:20;1999.90;;;999.90;;
8068;SDS011;4077;43.702;24.896;2023-03-16T13:42:51;1999.90;;;999.90;;
8068;SDS011;4077;43.702;24.896;2023-03-16T13:45:20;1999.90;;;999.90;;
8068;SDS011;4077;43.702;24.896;2023-03-16T13:47:47;1999.90;;;999.90;;
8068;SDS011;4077;43.702;24.896;2023-03-16T13:50:13;1999.90;;;999.90;;
8068;SDS011;4077;43.702;24.896;2023-03-16T13:52:40;1999.90;;;999.90;;
8068;SDS011;4077;43.702;24.896;2023-03-16T13:55:13;1999.90;;;999.90;;
8068;SDS011;4077;43.702;24.896;2023-03-16T13:57:41;1999.90;;;999.90;;
8068;SDS011;4077;43.702;24.896;2023-03-16T14:02:46;1999.90;;;999.90;;
8068;SDS011;4077;43.702;24.896;2023-03-16T14:05:33;1999.90;;;999.90;;
8068;SDS011;4077;43.702;24.896;2023-03-16T14:08:00;1999.90;;;999.90;;
8068;SDS011;4077;43.702;24.896;2023-03-16T14:10:36;1999.90;;;999.90;;
8068;SDS011;4077;43.702;24.896;2023-03-16T14:13:08;1999.90;;;999.90;;
8068;SDS011;4077;43.702;24.896;2023-03-16T14:15:46;1999.90;;;999.90;;
8068;SDS011;4077;43.702;24.896;2023-03-16T14:19:04;1999.90;;;999.90;;
8068;SDS011;4077;43.702;24.896;2023-03-16T14:21:41;1999.90;;;999.90;;
8068;SDS011;4077;43.702;24.896;2023-03-16T14:27:07;1999.90;;;999.90;;
8068;SDS011;4077;43.702;24.896;2023-03-16T14:29:43;1999.90;;;999.90;;
8068;SDS011;4077;43.702;24.896;2023-03-16T14:37:39;1999.90;;;999.90;;
8068;SDS011;4077;43.702;24.896;2023-03-16T14:40:22;1999.90;;;999.90;;
8068;SDS011;4077;43.702;24.896;2023-03-16T14:42:53;1999.90;;;999.90;;
8068;SDS011;4077;43.702;24.896;2023-03-16T14:45:21;1999.90;;;999.90;;
8068;SDS011;4077;43.702;24.896;2023-03-16T14:47:52;1999.90;;;999.90;;
8068;SDS011;4077;43.702;24.896;2023-03-16T14:50:22;1999.90;;;999.90;;
8068;SDS011;4077;43.702;24.896;2023-03-16T14:52:49;1999.90;;;999.90;;
8068;SDS011;4077;43.702;24.896;2023-03-16T14:55:18;1999.90;;;999.90;;
8068;SDS011;4077;43.702;24.896;2023-03-16T14:57:44;1999.90;;;999.90;;
8068;SDS011;4077;43.702;24.896;2023-03-16T15:00:14;1999.90;;;999.90;;
8068;SDS011;4077;43.702;24.896;2023-03-16T15:02:56;1999.90;;;999.90;;
8068;SDS011;4077;43.702;24.896;2023-03-16T15:05:45;1999.90;;;999.90;;
8068;SDS011;4077;43.702;24.896;2023-03-16T15:08:14;1999.90;;;999.90;;
8068;SDS011;4077;43.702;24.896;2023-03-16T15:10:43;1999.90;;;999.90;;
8068;SDS011;4077;43.702;24.896;2023-03-16T15:13:17;1999.90;;;999.90;;
8068;SDS011;4077;43.702;24.896;2023-03-16T15:16:08;1999.90;;;999.90;;
8068;SDS011;4077;43.702;24.896;2023-03-16T15:18:38;1999.90;;;999.90;;
8068;SDS011;4077;43.702;24.896;2023-03-16T15:21:11;1999.90;;;999.90;;
8068;SDS011;4077;43.702;24.896;2023-03-16T15:23:39;1999.90;;;999.90;;
8068;SDS011;4077;43.702;24.896;2023-03-16T15:26:07;1999.90;;;999.90;;
8068;SDS011;4077;43.702;24.896;2023-03-16T15:28:35;1999.90;;;999.90;;
8068;SDS011;4077;43.702;24.896;2023-03-16T15:31:01;1999.90;;;999.90;;
8068;SDS011;4077;43.702;24.896;2023-03-16T15:33:27;1999.90;;;999.90;;
8068;SDS011;4077;43.702;24.896;2023-03-16T15:35:53;1999.90;;;999.90;;
8068;SDS011;4077;43.702;24.896;2023-03-16T15:38:28;1999.90;;;999.90;;
8068;SDS011;4077;43.702;24.896;2023-03-16T15:40:56;1999.90;;;999.90;;
8068;SDS011;4077;43.702;24.896;2023-03-16T15:43:23;1999.90;;;999.90;;
8068;SDS011;4077;43.702;24.896;2023-03-16T15:45:51;1999.90;;;999.90;;
8068;SDS011;4077;43.702;24.896;2023-03-16T15:48:18;1999.90;;;999.90;;
8068;SDS011;4077;43.702;24.896;2023-03-16T15:55:51;1999.90;;;999.90;;
8068;SDS011;4077;43.702;24.896;2023-03-16T15:58:25;1999.90;;;999.90;;